createdAt,value
2017-10-29T00:00:34.018Z,987.63
2017-10-29T00:01:14.601Z,987.63
2017-10-29T00:01:55.178Z,987.61
2017-10-29T00:02:35.776Z,987.59
2017-10-29T00:03:16.353Z,987.56
2017-10-29T00:03:56.932Z,987.49
2017-10-29T00:04:37.537Z,987.52
2017-10-29T00:05:18.123Z,987.58
2017-10-29T00:05:58.694Z,987.47
2017-10-29T00:06:39.271Z,987.43
2017-10-29T00:07:19.866Z,987.49
2017-10-29T00:08:00.432Z,987.46
2017-10-29T00:08:41.009Z,987.36
2017-10-29T00:09:21.584Z,987.46
2017-10-29T00:10:02.172Z,987.39
2017-10-29T00:10:42.759Z,987.33
2017-10-29T00:11:23.343Z,987.39
2017-10-29T00:12:03.908Z,987.3
2017-10-29T00:12:44.491Z,987.3
2017-10-29T00:13:25.068Z,987.19
2017-10-29T00:14:05.662Z,987.26
2017-10-29T00:14:46.261Z,987.14
2017-10-29T00:15:26.899Z,987.15
2017-10-29T00:16:07.445Z,987.15
2017-10-29T00:16:48.026Z,987.01
2017-10-29T00:17:28.609Z,986.99
2017-10-29T00:18:09.171Z,987.05
2017-10-29T00:18:49.738Z,986.99
2017-10-29T00:19:30.299Z,987.08
2017-10-29T00:20:10.881Z,986.92
2017-10-29T00:20:51.477Z,986.88
2017-10-29T00:21:32.068Z,986.82
2017-10-29T00:22:12.633Z,986.94
2017-10-29T00:22:53.233Z,986.93
2017-10-29T00:23:33.799Z,986.74
2017-10-29T00:24:14.382Z,986.79
2017-10-29T00:24:54.983Z,986.75
2017-10-29T00:25:35.561Z,986.81
2017-10-29T00:26:16.129Z,986.67
2017-10-29T00:26:56.721Z,986.67
2017-10-29T00:27:37.293Z,986.63
2017-10-29T00:28:17.869Z,986.53
2017-10-29T00:28:58.418Z,986.59
2017-10-29T00:29:38.984Z,986.56
2017-10-29T00:30:19.556Z,986.59
2017-10-29T00:31:00.156Z,986.44
2017-10-29T00:31:40.722Z,986.57
2017-10-29T00:32:21.298Z,986.44
2017-10-29T00:33:01.857Z,986.42
2017-10-29T00:33:42.432Z,986.38
2017-10-29T00:34:23.011Z,986.41
2017-10-29T00:35:03.570Z,986.41
2017-10-29T00:35:44.139Z,986.36
2017-10-29T00:36:24.710Z,986.37
2017-10-29T00:37:05.281Z,986.31
2017-10-29T00:37:45.874Z,986.33
2017-10-29T00:38:26.476Z,986.22
2017-10-29T00:39:07.046Z,986.19
2017-10-29T00:39:47.602Z,986.08
2017-10-29T00:40:28.201Z,986.04
2017-10-29T00:41:08.777Z,985.96
2017-10-29T00:41:49.367Z,986.15
2017-10-29T00:42:29.934Z,985.99
2017-10-29T00:43:10.537Z,986.09
2017-10-29T00:43:51.125Z,985.99
2017-10-29T00:44:31.682Z,985.99
2017-10-29T00:45:12.252Z,985.89
2017-10-29T00:45:52.841Z,985.91
2017-10-29T00:46:33.401Z,985.97
2017-10-29T00:47:14.000Z,985.86
2017-10-29T00:47:54.586Z,985.86
2017-10-29T00:48:35.151Z,985.87
2017-10-29T00:49:15.730Z,985.76
2017-10-29T00:49:56.312Z,985.73
2017-10-29T00:50:36.909Z,985.73
2017-10-29T00:51:17.517Z,985.66
2017-10-29T00:51:58.100Z,985.63
2017-10-29T00:52:38.696Z,985.64
2017-10-29T00:53:19.292Z,985.67
2017-10-29T00:53:59.877Z,985.64
2017-10-29T00:54:40.443Z,985.66
2017-10-29T00:55:21.035Z,985.48
2017-10-29T00:56:01.679Z,985.53
2017-10-29T00:56:42.262Z,985.48
2017-10-29T00:57:22.845Z,985.51
2017-10-29T00:58:03.434Z,985.45
2017-10-29T00:58:44.037Z,985.41
2017-10-29T00:59:24.615Z,985.4
2017-10-29T01:00:05.200Z,985.31
2017-10-29T01:00:45.764Z,985.35
2017-10-29T01:01:26.341Z,985.35
2017-10-29T01:02:06.957Z,985.31
2017-10-29T01:02:47.507Z,985.25
2017-10-29T01:03:28.091Z,985.11
2017-10-29T01:04:08.698Z,985.13
2017-10-29T01:04:49.265Z,985.09
2017-10-29T01:05:29.846Z,984.96
2017-10-29T01:06:10.438Z,985
2017-10-29T01:06:51.021Z,984.95
2017-10-29T01:07:31.634Z,984.98
2017-10-29T01:08:12.227Z,984.93
2017-10-29T01:08:52.812Z,984.99
2017-10-29T01:09:33.419Z,984.79
2017-10-29T01:10:13.972Z,984.86
2017-10-29T01:10:54.565Z,984.84
2017-10-29T01:11:35.176Z,984.66
2017-10-29T01:12:15.739Z,984.74
2017-10-29T01:12:56.334Z,984.7
2017-10-29T01:13:36.911Z,984.72
2017-10-29T01:14:17.476Z,984.74
2017-10-29T01:14:58.045Z,984.49
2017-10-29T01:15:38.626Z,984.77
2017-10-29T01:16:19.192Z,984.63
2017-10-29T01:16:59.774Z,984.57
2017-10-29T01:17:40.356Z,984.49
2017-10-29T01:18:20.945Z,984.62
2017-10-29T01:19:01.523Z,984.6
2017-10-29T01:19:42.101Z,984.51
2017-10-29T01:20:22.674Z,984.42
2017-10-29T01:21:03.255Z,984.38
2017-10-29T01:21:43.833Z,984.28
2017-10-29T01:22:24.407Z,984.28
2017-10-29T01:23:04.980Z,984.26
2017-10-29T01:23:45.574Z,984.26
2017-10-29T01:24:26.151Z,984.16
2017-10-29T01:25:06.760Z,984.22
2017-10-29T01:25:47.315Z,984.05
2017-10-29T01:26:27.886Z,984.11
2017-10-29T01:27:08.473Z,984.13
2017-10-29T01:27:49.047Z,984.03
2017-10-29T01:28:29.643Z,984.09
2017-10-29T01:29:10.210Z,983.98
2017-10-29T01:29:50.791Z,983.95
2017-10-29T01:30:31.370Z,983.94
2017-10-29T01:31:11.930Z,983.99
2017-10-29T01:31:52.520Z,983.9
2017-10-29T01:32:33.093Z,984.01
2017-10-29T01:33:13.682Z,984.01
2017-10-29T01:33:54.261Z,983.88
2017-10-29T01:34:34.852Z,983.91
2017-10-29T01:35:15.457Z,983.75
2017-10-29T01:35:56.023Z,983.67
2017-10-29T01:36:36.593Z,983.83
2017-10-29T01:37:17.169Z,983.76
2017-10-29T01:37:57.749Z,983.68
2017-10-29T01:38:38.309Z,983.65
2017-10-29T01:39:18.904Z,983.68
2017-10-29T01:39:59.494Z,983.68
2017-10-29T01:40:40.051Z,983.69
2017-10-29T01:41:20.632Z,983.56
2017-10-29T01:42:01.271Z,983.46
2017-10-29T01:42:41.835Z,983.56
2017-10-29T01:43:22.463Z,983.42
2017-10-29T01:44:03.054Z,983.44
2017-10-29T01:44:43.642Z,983.45
2017-10-29T01:45:24.214Z,983.45
2017-10-29T01:46:04.808Z,983.24
2017-10-29T01:46:45.379Z,983.35
2017-10-29T01:47:25.938Z,983.35
2017-10-29T01:48:06.501Z,983.34
2017-10-29T01:48:47.088Z,983.31
2017-10-29T01:49:27.657Z,983.26
2017-10-29T01:50:08.254Z,983.24
2017-10-29T01:50:48.841Z,983.33
2017-10-29T01:51:29.400Z,983.37
2017-10-29T01:52:10.005Z,983.34
2017-10-29T01:52:50.608Z,983.24
2017-10-29T01:53:31.214Z,983.26
2017-10-29T01:54:11.771Z,983.1
2017-10-29T01:54:52.354Z,983.09
2017-10-29T01:55:32.926Z,983.06
2017-10-29T01:56:13.503Z,982.98
2017-10-29T01:56:54.074Z,982.95
2017-10-29T01:57:34.652Z,982.95
2017-10-29T01:58:15.225Z,982.94
2017-10-29T01:58:55.788Z,982.95
2017-10-29T01:59:36.378Z,982.84
2017-10-29T02:00:16.957Z,982.81
2017-10-29T02:00:57.531Z,982.88
2017-10-29T02:01:38.088Z,982.9
2017-10-29T02:02:18.691Z,982.91
2017-10-29T02:02:59.281Z,982.88
2017-10-29T02:03:39.908Z,982.93
2017-10-29T02:04:20.470Z,982.89
2017-10-29T02:05:01.061Z,982.74
2017-10-29T02:05:41.636Z,982.82
2017-10-29T02:06:22.208Z,982.85
2017-10-29T02:07:02.780Z,982.69
2017-10-29T02:07:43.406Z,982.62
2017-10-29T02:08:23.952Z,982.45
2017-10-29T02:09:04.557Z,982.57
2017-10-29T02:09:45.158Z,982.36
2017-10-29T02:10:25.713Z,982.51
2017-10-29T02:11:06.296Z,982.6
2017-10-29T02:11:46.865Z,982.38
2017-10-29T02:12:27.475Z,982.29
2017-10-29T02:13:08.024Z,982.33
2017-10-29T02:13:48.595Z,982.26
2017-10-29T02:14:29.160Z,982.1
2017-10-29T02:15:09.775Z,982.28
2017-10-29T02:15:50.386Z,982.28
2017-10-29T02:16:30.945Z,982.18
2017-10-29T02:17:11.532Z,982.27
2017-10-29T02:17:52.122Z,982.24
2017-10-29T02:18:32.734Z,982.2
2017-10-29T02:19:13.292Z,982.25
2017-10-29T02:19:53.883Z,982.33
2017-10-29T02:20:34.455Z,982.45
2017-10-29T02:21:15.054Z,982.04
2017-10-29T02:21:55.642Z,982.21
2017-10-29T02:22:36.265Z,982.18
2017-10-29T02:23:16.855Z,982.2
2017-10-29T02:23:57.445Z,982.11
2017-10-29T02:24:38.020Z,982.21
2017-10-29T02:25:18.595Z,982.09
2017-10-29T02:25:59.172Z,982.13
2017-10-29T02:26:39.762Z,981.88
2017-10-29T02:27:20.345Z,981.91
2017-10-29T02:28:00.952Z,981.96
2017-10-29T02:28:41.535Z,981.98
2017-10-29T02:29:22.126Z,981.98
2017-10-29T02:30:02.736Z,981.97
2017-10-29T02:30:43.365Z,981.83
2017-10-29T02:31:23.933Z,981.94
2017-10-29T02:32:04.492Z,981.8
2017-10-29T02:32:45.076Z,981.78
2017-10-29T02:33:25.689Z,981.67
2017-10-29T02:34:06.285Z,981.84
2017-10-29T02:34:46.883Z,981.72
2017-10-29T02:35:27.449Z,981.85
2017-10-29T02:36:08.028Z,981.79
2017-10-29T02:36:48.623Z,981.94
2017-10-29T02:37:29.183Z,981.68
2017-10-29T02:38:09.752Z,981.7
2017-10-29T02:38:50.316Z,981.71
2017-10-29T02:39:30.921Z,981.7
2017-10-29T02:40:11.495Z,981.48
2017-10-29T02:40:52.094Z,981.47
2017-10-29T02:41:32.615Z,981.57
2017-10-29T02:42:13.201Z,981.63
2017-10-29T02:42:53.783Z,981.53
2017-10-29T02:43:34.407Z,981.56
2017-10-29T02:44:14.961Z,981.53
2017-10-29T02:44:55.538Z,981.5
2017-10-29T02:45:36.123Z,981.5
2017-10-29T02:46:16.704Z,981.58
2017-10-29T02:46:57.273Z,981.22
2017-10-29T02:47:37.854Z,981.48
2017-10-29T02:48:18.399Z,981.43
2017-10-29T02:48:58.972Z,981.53
2017-10-29T02:49:39.600Z,981.45
2017-10-29T02:50:20.178Z,981.51
2017-10-29T02:51:00.737Z,981.2
2017-10-29T02:51:41.303Z,981.25
2017-10-29T02:52:21.876Z,980.95
2017-10-29T02:53:02.454Z,980.88
2017-10-29T02:53:43.034Z,980.96
2017-10-29T02:54:23.601Z,980.99
2017-10-29T02:55:04.177Z,980.96
2017-10-29T02:55:44.750Z,980.8
2017-10-29T02:56:25.310Z,980.92
2017-10-29T02:57:05.895Z,980.88
2017-10-29T02:57:46.477Z,980.95
2017-10-29T02:58:27.049Z,980.97
2017-10-29T02:59:07.621Z,981.01
2017-10-29T02:59:48.203Z,980.85
2017-10-29T03:00:28.804Z,980.93
2017-10-29T03:01:09.388Z,980.91
2017-10-29T03:01:49.961Z,981.06
2017-10-29T03:02:30.561Z,980.96
2017-10-29T03:03:11.128Z,980.96
2017-10-29T03:03:51.720Z,980.94
2017-10-29T03:04:32.286Z,980.95
2017-10-29T03:05:12.866Z,980.91
2017-10-29T03:05:53.497Z,980.89
2017-10-29T03:06:34.084Z,980.72
2017-10-29T03:07:14.640Z,980.98
2017-10-29T03:07:55.205Z,980.75
2017-10-29T03:08:35.789Z,980.62
2017-10-29T03:09:16.374Z,980.88
2017-10-29T03:09:56.997Z,980.5
2017-10-29T03:10:37.582Z,980.44
2017-10-29T03:11:18.170Z,980.42
2017-10-29T03:11:58.740Z,980.93
2017-10-29T03:12:39.309Z,980.61
2017-10-29T03:13:19.891Z,980.63
2017-10-29T03:14:00.537Z,980.72
2017-10-29T03:14:41.116Z,980.82
2017-10-29T03:15:21.701Z,980.84
2017-10-29T03:16:02.265Z,980.75
2017-10-29T03:16:42.847Z,980.73
2017-10-29T03:17:23.427Z,980.64
2017-10-29T03:18:04.008Z,980.81
2017-10-29T03:18:44.575Z,980.7
2017-10-29T03:19:25.188Z,980.65
2017-10-29T03:20:05.813Z,980.63
2017-10-29T03:20:46.392Z,980.64
2017-10-29T03:21:26.990Z,980.75
2017-10-29T03:22:07.578Z,980.54
2017-10-29T03:22:48.178Z,980.38
2017-10-29T03:23:28.734Z,980.51
2017-10-29T03:24:09.325Z,980.21
2017-10-29T03:24:49.888Z,980.31
2017-10-29T03:25:30.524Z,980.34
2017-10-29T03:26:11.146Z,980.44
2017-10-29T03:26:51.709Z,980.25
2017-10-29T03:27:32.290Z,980.39
2017-10-29T03:28:12.902Z,980.29
2017-10-29T03:28:53.466Z,980.15
2017-10-29T03:29:34.069Z,980.21
2017-10-29T03:30:14.656Z,980.21
2017-10-29T03:30:55.257Z,980.31
2017-10-29T03:31:35.863Z,980.2
2017-10-29T03:32:16.453Z,980.38
2017-10-29T03:32:57.064Z,980.35
2017-10-29T03:33:37.636Z,980.1
2017-10-29T03:34:18.206Z,980.17
2017-10-29T03:34:58.772Z,980.23
2017-10-29T03:35:39.367Z,980.18
2017-10-29T03:36:19.948Z,980.2
2017-10-29T03:37:00.532Z,980.3
2017-10-29T03:37:41.144Z,980.26
2017-10-29T03:38:21.718Z,980.34
2017-10-29T03:39:02.280Z,980.42
2017-10-29T03:39:42.913Z,980.41
2017-10-29T03:40:23.485Z,980.31
2017-10-29T03:41:04.103Z,980.22
2017-10-29T03:41:44.662Z,980.33
2017-10-29T03:42:25.242Z,980.27
2017-10-29T03:43:05.812Z,980.36
2017-10-29T03:43:46.419Z,980.36
2017-10-29T03:44:26.994Z,980.32
2017-10-29T03:45:07.616Z,980.18
2017-10-29T03:45:48.193Z,980.26
2017-10-29T03:46:28.775Z,980.16
2017-10-29T03:47:09.366Z,980.25
2017-10-29T03:47:49.990Z,980.31
2017-10-29T03:48:30.558Z,980.3
2017-10-29T03:49:11.152Z,980.38
2017-10-29T03:49:51.710Z,980.54
2017-10-29T03:50:32.343Z,980.37
2017-10-29T03:51:12.936Z,980.54
2017-10-29T03:51:53.514Z,980.73
2017-10-29T03:52:34.148Z,980.94
2017-10-29T03:53:14.743Z,980.9
2017-10-29T03:53:55.313Z,980.88
2017-10-29T03:54:35.942Z,980.84
2017-10-29T03:55:16.530Z,980.93
2017-10-29T03:55:57.112Z,981.21
2017-10-29T03:56:37.686Z,981.25
2017-10-29T03:57:18.244Z,981.28
2017-10-29T03:57:58.802Z,981.37
2017-10-29T03:58:39.357Z,981.14
2017-10-29T03:59:19.935Z,981.38
2017-10-29T04:00:00.498Z,981.25
2017-10-29T04:00:41.083Z,981.37
2017-10-29T04:01:21.652Z,981.25
2017-10-29T04:02:02.242Z,980.99
2017-10-29T04:02:42.842Z,981.03
2017-10-29T04:03:23.419Z,981.13
2017-10-29T04:04:03.982Z,981.16
2017-10-29T04:04:44.557Z,981.23
2017-10-29T04:05:25.141Z,980.91
2017-10-29T04:06:05.720Z,980.95
2017-10-29T04:06:46.279Z,981.19
2017-10-29T04:07:26.866Z,981.1
2017-10-29T04:08:07.445Z,980.99
2017-10-29T04:08:48.024Z,981
2017-10-29T04:09:28.621Z,980.96
2017-10-29T04:10:09.216Z,981.06
2017-10-29T04:10:49.798Z,981.12
2017-10-29T04:11:30.402Z,980.99
2017-10-29T04:12:10.987Z,981.02
2017-10-29T04:12:51.560Z,980.91
2017-10-29T04:13:32.133Z,980.95
2017-10-29T04:14:12.721Z,980.95
2017-10-29T04:14:53.280Z,981.02
2017-10-29T04:15:33.854Z,981.04
2017-10-29T04:16:14.441Z,980.9
2017-10-29T04:16:55.004Z,980.93
2017-10-29T04:17:35.576Z,980.97
2017-10-29T04:18:16.165Z,981.01
2017-10-29T04:18:56.745Z,981.02
2017-10-29T04:19:37.330Z,981.01
2017-10-29T04:20:17.888Z,981.04
2017-10-29T04:20:58.460Z,980.57
2017-10-29T04:21:39.063Z,980.8
2017-10-29T04:22:19.663Z,980.52
2017-10-29T04:23:00.280Z,980.67
2017-10-29T04:23:40.858Z,980.75
2017-10-29T04:24:21.457Z,980.68
2017-10-29T04:25:02.052Z,980.77
2017-10-29T04:25:42.630Z,980.75
2017-10-29T04:26:23.221Z,980.91
2017-10-29T04:27:03.792Z,980.59
2017-10-29T04:27:44.378Z,980.77
2017-10-29T04:28:24.945Z,980.88
2017-10-29T04:29:05.526Z,980.82
2017-10-29T04:29:46.090Z,980.97
2017-10-29T04:30:26.656Z,980.8
2017-10-29T04:31:07.216Z,980.95
2017-10-29T04:31:47.811Z,980.83
2017-10-29T04:32:28.394Z,980.93
2017-10-29T04:33:08.968Z,980.94
2017-10-29T04:33:49.545Z,980.9
2017-10-29T04:34:30.121Z,980.8
2017-10-29T04:35:10.698Z,980.85
2017-10-29T04:35:51.264Z,980.83
2017-10-29T04:36:31.821Z,980.66
2017-10-29T04:37:12.398Z,981.07
2017-10-29T04:37:52.984Z,980.81
2017-10-29T04:38:33.581Z,980.95
2017-10-29T04:39:14.168Z,981.08
2017-10-29T04:39:54.755Z,980.82
2017-10-29T04:40:35.307Z,981.14
2017-10-29T04:41:15.893Z,981.09
2017-10-29T04:41:56.479Z,980.83
2017-10-29T04:42:37.039Z,981.33
2017-10-29T04:43:17.630Z,981.36
2017-10-29T04:43:58.213Z,981.48
2017-10-29T04:44:38.792Z,980.97
2017-10-29T04:45:19.468Z,981.49
2017-10-29T04:46:00.007Z,981.37
2017-10-29T04:46:40.591Z,980.99
2017-10-29T04:47:21.164Z,981.29
2017-10-29T04:48:01.719Z,981.18
2017-10-29T04:48:42.299Z,981
2017-10-29T04:49:22.857Z,981.13
2017-10-29T04:50:03.450Z,981.15
2017-10-29T04:50:44.004Z,980.98
2017-10-29T04:51:24.578Z,980.94
2017-10-29T04:52:05.155Z,981.06
2017-10-29T04:52:45.740Z,981.14
2017-10-29T04:53:26.304Z,980.92
2017-10-29T04:54:06.876Z,981.1
2017-10-29T04:54:47.474Z,981.13
2017-10-29T04:55:28.068Z,981.24
2017-10-29T04:56:08.636Z,981.37
2017-10-29T04:56:49.231Z,981.39
2017-10-29T04:57:29.825Z,981.04
2017-10-29T04:58:10.391Z,980.97
2017-10-29T04:58:50.972Z,981.02
2017-10-29T04:59:31.547Z,981.23
2017-10-29T05:00:12.122Z,981.1
2017-10-29T05:00:52.725Z,981.14
2017-10-29T05:01:33.300Z,981.33
2017-10-29T05:02:13.877Z,981.19
2017-10-29T05:02:54.481Z,981.51
2017-10-29T05:03:35.048Z,981.43
2017-10-29T05:04:15.632Z,981.28
2017-10-29T05:04:56.225Z,981.28
2017-10-29T05:05:36.804Z,981.2
2017-10-29T05:06:17.356Z,981.3
2017-10-29T05:06:57.945Z,981.12
2017-10-29T05:07:38.514Z,981.11
2017-10-29T05:08:19.080Z,981.17
2017-10-29T05:08:59.657Z,981.21
2017-10-29T05:09:40.216Z,980.96
2017-10-29T05:10:20.795Z,981.08
2017-10-29T05:11:01.362Z,981.17
2017-10-29T05:11:41.927Z,981.19
2017-10-29T05:12:22.524Z,981.16
2017-10-29T05:13:03.099Z,981.1
2017-10-29T05:13:43.679Z,981.15
2017-10-29T05:14:24.245Z,981.02
2017-10-29T05:15:04.830Z,981.23
2017-10-29T05:15:45.407Z,981.05
2017-10-29T05:16:26.010Z,981.04
2017-10-29T05:17:06.576Z,981.15
2017-10-29T05:17:47.133Z,981.18
2017-10-29T05:18:27.732Z,981.1
2017-10-29T05:19:08.301Z,981.01
2017-10-29T05:19:48.923Z,981.13
2017-10-29T05:20:29.513Z,981.19
2017-10-29T05:21:10.093Z,981.02
2017-10-29T05:21:50.674Z,981.32
2017-10-29T05:22:31.273Z,981.15
2017-10-29T05:23:11.853Z,981.02
2017-10-29T05:23:52.409Z,980.96
2017-10-29T05:24:32.986Z,981.1
2017-10-29T05:25:13.549Z,980.96
2017-10-29T05:25:54.123Z,981.12
2017-10-29T05:26:34.713Z,980.98
2017-10-29T05:27:15.313Z,981.05
2017-10-29T05:27:55.890Z,980.87
2017-10-29T05:28:36.566Z,981.03
2017-10-29T05:29:17.167Z,981
2017-10-29T05:29:57.726Z,981.02
2017-10-29T05:30:38.324Z,981.12
2017-10-29T05:31:18.909Z,981.15
2017-10-29T05:31:59.486Z,981.15
2017-10-29T05:32:40.088Z,981.1
2017-10-29T05:33:20.633Z,981.19
2017-10-29T05:34:01.224Z,981.18
2017-10-29T05:34:41.814Z,981.22
2017-10-29T05:35:22.390Z,981.26
2017-10-29T05:36:02.987Z,981.21
2017-10-29T05:36:43.574Z,981.22
2017-10-29T05:37:24.138Z,981.32
2017-10-29T05:38:04.710Z,981.22
2017-10-29T05:38:45.383Z,981.15
2017-10-29T05:39:25.866Z,981.11
2017-10-29T05:40:06.442Z,980.95
2017-10-29T05:40:47.031Z,981.05
2017-10-29T05:41:27.608Z,981.09
2017-10-29T05:42:08.181Z,981.07
2017-10-29T05:42:48.744Z,981.16
2017-10-29T05:43:29.345Z,981.07
2017-10-29T05:44:09.917Z,981.16
2017-10-29T05:44:50.493Z,981.17
2017-10-29T05:45:31.075Z,981.11
2017-10-29T05:46:11.660Z,981.25
2017-10-29T05:46:52.238Z,981.2
2017-10-29T05:47:32.834Z,981.25
2017-10-29T05:48:13.380Z,981.07
2017-10-29T05:48:53.976Z,981.2
2017-10-29T05:49:34.596Z,981.02
2017-10-29T05:50:15.179Z,981.08
2017-10-29T05:50:55.780Z,981.25
2017-10-29T05:51:36.374Z,981.16
2017-10-29T05:52:16.936Z,981.25
2017-10-29T05:52:57.527Z,981.24
2017-10-29T05:53:38.095Z,981.11
2017-10-29T05:54:18.699Z,981.31
2017-10-29T05:54:59.270Z,981.24
2017-10-29T05:55:39.838Z,981.27
2017-10-29T05:56:20.431Z,981.33
2017-10-29T05:57:01.048Z,981.29
2017-10-29T05:57:41.610Z,981.35
2017-10-29T05:58:22.209Z,981.33
2017-10-29T05:59:02.772Z,981.29
2017-10-29T05:59:43.355Z,981.28
2017-10-29T06:00:23.931Z,981.38
2017-10-29T06:01:04.577Z,981.47
2017-10-29T06:01:45.117Z,981.38
2017-10-29T06:02:25.717Z,981.19
2017-10-29T06:03:06.300Z,981.15
2017-10-29T06:03:46.879Z,981.1
2017-10-29T06:04:27.473Z,981.2
2017-10-29T06:05:08.059Z,981.18
2017-10-29T06:05:48.623Z,981.16
2017-10-29T06:06:29.242Z,981.07
2017-10-29T06:07:09.786Z,981.18
2017-10-29T06:07:50.390Z,981.05
2017-10-29T06:08:30.979Z,981.13
2017-10-29T06:09:11.557Z,981.02
2017-10-29T06:09:52.132Z,981.09
2017-10-29T06:10:32.702Z,980.95
2017-10-29T06:11:13.291Z,981
2017-10-29T06:11:53.882Z,981.13
2017-10-29T06:12:34.468Z,981.13
2017-10-29T06:13:15.054Z,981.03
2017-10-29T06:13:55.654Z,981.17
2017-10-29T06:14:36.239Z,981.07
2017-10-29T06:15:16.874Z,981.1
2017-10-29T06:15:57.413Z,981.07
2017-10-29T06:16:37.975Z,981.09
2017-10-29T06:17:18.559Z,981.17
2017-10-29T06:17:59.110Z,981.29
2017-10-29T06:18:39.715Z,980.99
2017-10-29T06:19:20.289Z,981.19
2017-10-29T06:20:00.863Z,981.04
2017-10-29T06:20:41.429Z,981.02
2017-10-29T06:21:22.004Z,981.02
2017-10-29T06:22:02.563Z,981.1
2017-10-29T06:22:43.167Z,980.94
2017-10-29T06:23:23.735Z,981.18
2017-10-29T06:24:04.349Z,981.07
2017-10-29T06:24:44.920Z,981.04
2017-10-29T06:25:25.482Z,980.82
2017-10-29T06:26:06.062Z,980.94
2017-10-29T06:26:46.626Z,981.03
2017-10-29T06:27:27.202Z,980.79
2017-10-29T06:28:07.792Z,981
2017-10-29T06:28:48.368Z,981.04
2017-10-29T06:29:28.933Z,980.75
2017-10-29T06:30:09.509Z,980.99
2017-10-29T06:30:50.097Z,980.89
2017-10-29T06:31:30.713Z,980.99
2017-10-29T06:32:11.271Z,980.92
2017-10-29T06:32:51.839Z,980.88
2017-10-29T06:33:32.427Z,980.82
2017-10-29T06:34:13.036Z,980.82
2017-10-29T06:34:53.602Z,980.95
2017-10-29T06:35:34.180Z,981.01
2017-10-29T06:36:14.772Z,980.8
2017-10-29T06:36:55.363Z,981.06
2017-10-29T06:37:35.946Z,981.05
2017-10-29T06:38:16.531Z,981.1
2017-10-29T06:38:57.111Z,981.09
2017-10-29T06:39:37.682Z,981.24
2017-10-29T06:40:18.239Z,981.36
2017-10-29T06:40:58.814Z,981.26
2017-10-29T06:41:39.415Z,981.34
2017-10-29T06:42:19.990Z,981.16
2017-10-29T06:43:00.588Z,981.26
2017-10-29T06:43:41.179Z,981.27
2017-10-29T06:44:21.758Z,981.29
2017-10-29T06:45:02.353Z,981.62
2017-10-29T06:45:42.940Z,981.53
2017-10-29T06:46:23.517Z,981.47
2017-10-29T06:47:04.094Z,981.31
2017-10-29T06:47:44.671Z,981.39
2017-10-29T06:48:25.334Z,981.55
2017-10-29T06:49:05.893Z,981.35
2017-10-29T06:49:46.472Z,981.7
2017-10-29T06:50:27.033Z,981.47
2017-10-29T06:51:07.608Z,981.75
2017-10-29T06:51:48.179Z,981.73
2017-10-29T06:52:28.762Z,981.8
2017-10-29T06:53:09.346Z,981.77
2017-10-29T06:53:49.915Z,981.7
2017-10-29T06:54:30.491Z,981.87
2017-10-29T06:55:11.064Z,981.66
2017-10-29T06:55:51.651Z,981.6
2017-10-29T06:56:32.243Z,981.66
2017-10-29T06:57:12.834Z,981.67
2017-10-29T06:57:53.415Z,981.72
2017-10-29T06:58:34.010Z,981.48
2017-10-29T06:59:14.592Z,981.63
2017-10-29T06:59:55.184Z,981.84
2017-10-29T07:00:35.800Z,981.79
2017-10-29T07:01:16.376Z,981.97
2017-10-29T07:01:56.955Z,981.92
2017-10-29T07:02:37.513Z,981.86
2017-10-29T07:03:18.102Z,982.03
2017-10-29T07:03:58.688Z,981.94
2017-10-29T07:04:39.370Z,981.91
2017-10-29T07:05:19.952Z,982.12
2017-10-29T07:06:00.522Z,982.07
2017-10-29T07:06:41.108Z,982.02
2017-10-29T07:07:21.675Z,982.12
2017-10-29T07:08:02.231Z,982.18
2017-10-29T07:08:42.837Z,982.18
2017-10-29T07:09:23.457Z,982.22
2017-10-29T07:10:04.018Z,982.15
2017-10-29T07:10:44.603Z,982.31
2017-10-29T07:11:25.181Z,982.24
2017-10-29T07:12:05.794Z,982.32
2017-10-29T07:12:46.360Z,982.45
2017-10-29T07:13:26.926Z,982.3
2017-10-29T07:14:07.511Z,982.4
2017-10-29T07:14:48.102Z,982.42
2017-10-29T07:15:28.664Z,982.24
2017-10-29T07:16:09.252Z,982.41
2017-10-29T07:16:49.838Z,982.46
2017-10-29T07:17:30.448Z,982.47
2017-10-29T07:18:11.218Z,982.56
2017-10-29T07:18:51.933Z,982.51
2017-10-29T07:19:32.514Z,982.56
2017-10-29T07:20:13.109Z,982.47
2017-10-29T07:20:53.888Z,982.37
2017-10-29T07:21:34.753Z,982.38
2017-10-29T07:22:15.330Z,982.35
2017-10-29T07:22:55.998Z,982.47
2017-10-29T07:23:36.577Z,982.47
2017-10-29T07:24:17.375Z,982.48
2017-10-29T07:24:57.974Z,982.52
2017-10-29T07:25:38.686Z,982.46
2017-10-29T07:26:19.239Z,982.43
2017-10-29T07:26:59.795Z,982.5
2017-10-29T07:27:40.507Z,982.43
2017-10-29T07:28:21.068Z,982.37
2017-10-29T07:29:01.777Z,982.55
2017-10-29T07:29:42.404Z,982.35
2017-10-29T07:30:22.982Z,982.42
2017-10-29T07:31:03.583Z,982.31
2017-10-29T07:31:44.295Z,982.49
2017-10-29T07:32:24.905Z,982.43
2017-10-29T07:33:05.500Z,982.44
2017-10-29T07:33:46.258Z,982.33
2017-10-29T07:34:26.895Z,982.45
2017-10-29T07:35:07.469Z,982.43
2017-10-29T07:35:48.046Z,982.43
2017-10-29T07:36:28.721Z,982.38
2017-10-29T07:37:09.283Z,982.36
2017-10-29T07:37:49.839Z,982.31
2017-10-29T07:38:30.408Z,982.21
2017-10-29T07:39:11.143Z,982.46
2017-10-29T07:39:52.516Z,982.49
2017-10-29T07:40:33.126Z,982.17
2017-10-29T07:41:13.805Z,982.44
2017-10-29T07:41:54.551Z,982.25
2017-10-29T07:42:35.171Z,982.53
2017-10-29T07:43:16.720Z,982.4
2017-10-29T07:43:57.391Z,982.55
2017-10-29T07:44:38.773Z,982.39
2017-10-29T07:45:19.986Z,982.61
2017-10-29T07:46:02.720Z,982.33
2017-10-29T07:46:43.745Z,982.6
2017-10-29T07:47:25.156Z,982.6
2017-10-29T07:48:06.686Z,982.59
2017-10-29T07:48:48.657Z,982.75
2017-10-29T07:49:29.547Z,982.82
2017-10-29T07:50:10.106Z,982.8
2017-10-29T07:50:50.730Z,982.87
2017-10-29T07:51:31.498Z,982.79
2017-10-29T07:52:12.247Z,982.85
2017-10-29T07:52:52.811Z,982.9
2017-10-29T07:53:33.392Z,982.68
2017-10-29T07:54:14.015Z,982.94
2017-10-29T07:54:54.590Z,983.08
2017-10-29T07:55:35.269Z,983.08
2017-10-29T07:56:16.007Z,983.2
2017-10-29T07:56:56.661Z,983.29
2017-10-29T07:57:37.226Z,983.16
2017-10-29T07:58:17.799Z,983.22
2017-10-29T07:58:58.387Z,983.34
2017-10-29T07:59:38.971Z,983.36
2017-10-29T08:00:19.557Z,983.33
2017-10-29T08:01:00.144Z,983.4
2017-10-29T08:01:40.746Z,983.5
2017-10-29T08:02:21.313Z,983.38
2017-10-29T08:03:01.925Z,983.19
2017-10-29T08:03:43.664Z,983.39
2017-10-29T08:04:24.245Z,983.38
2017-10-29T08:05:04.813Z,983.44
2017-10-29T08:05:45.670Z,983.33
2017-10-29T08:06:26.271Z,983.63
2017-10-29T08:07:06.870Z,983.37
2017-10-29T08:07:47.563Z,983.35
2017-10-29T08:08:28.135Z,983.33
2017-10-29T08:09:08.858Z,983.39
2017-10-29T08:09:49.559Z,983.33
2017-10-29T08:10:30.219Z,983.31
2017-10-29T08:11:11.326Z,983.44
2017-10-29T08:11:52.521Z,983.11
2017-10-29T08:12:33.344Z,983.47
2017-10-29T08:13:13.993Z,983.46
2017-10-29T08:13:54.814Z,983.5
2017-10-29T08:14:35.377Z,983.52
2017-10-29T08:15:15.942Z,983.4
2017-10-29T08:15:56.522Z,983.51
2017-10-29T08:16:37.095Z,983.48
2017-10-29T08:17:17.815Z,983.54
2017-10-29T08:17:58.399Z,983.54
2017-10-29T08:18:38.996Z,983.54
2017-10-29T08:19:19.557Z,983.62
2017-10-29T08:20:00.206Z,983.67
2017-10-29T08:20:40.994Z,983.71
2017-10-29T08:21:21.579Z,983.69
2017-10-29T08:22:02.160Z,983.75
2017-10-29T08:22:42.768Z,983.83
2017-10-29T08:23:23.349Z,983.99
2017-10-29T08:24:04.532Z,983.96
2017-10-29T08:24:45.479Z,984.16
2017-10-29T08:25:27.072Z,984.12
2017-10-29T08:26:08.357Z,984.11
2017-10-29T08:26:48.894Z,984.2
2017-10-29T08:27:29.471Z,984.31
2017-10-29T08:28:10.531Z,984.26
2017-10-29T08:28:52.265Z,984.49